Time;durP1;ratioP1;P1;durP2;ratioP2;P2;SDS_P1;SDS_P2;PMS_P1;PMS_P2;Temp;Humidity;BMP_temperature;BMP_pressure;BME280_temperature;BME280_humidity;BME280_pressure;Samples;Min_cycle;Max_cycle;Signal;HPM_P1;HPM_P2
2023/04/17 04:39:39;;;;;;;30.15;13.40;;;;;;;;;;5359025;22;21321203;-86
2023/04/17 04:43:22;;;;;;;31.38;13.50;;;;;;;;;;6102044;23;20026;-86
2023/04/17 04:46:36;;;;;;;32.72;13.98;;;;;;;;;;6074350;23;20082;-87
2023/04/17 04:49:52;;;;;;;27.58;11.98;;;;;;;;;;6077729;23;20026;-87
2023/04/17 04:53:00;;;;;;;29.67;15.25;;;;;;;;;;6010094;23;20050;-87
2023/04/17 04:56:02;;;;;;;28.75;14.40;;;;;;;;;;5985082;23;20147;-87
2023/04/17 04:59:23;;;;;;;29.08;14.27;;;;;;;;;;5977721;23;20020;-87
2023/04/17 05:02:46;;;;;;;30.20;14.45;;;;;;;;;;5902029;24;20021;-87
2023/04/17 05:06:15;;;;;;;30.58;14.63;;;;;;;;;;5800160;24;20171;-86
2023/04/17 05:12:58;;;;;;;30.55;13.95;;;;;;;;;;5761217;24;20043;-87
2023/04/17 05:16:12;;;;;;;31.48;14.48;;;;;;;;;;5753420;24;20037;-87
2023/04/17 05:19:32;;;;;;;29.38;14.00;;;;;;;;;;5783042;24;20037;-87
2023/04/17 05:22:42;;;;;;;35.35;16.02;;;;;;;;;;5752340;24;20038;-87
2023/04/17 05:26:15;;;;;;;29.60;13.95;;;;;;;;;;5801956;24;20485;-88
2023/04/17 05:30:05;;;;;;;30.40;14.07;;;;;;;;;;5848986;24;20030;-87
2023/04/17 05:34:04;;;;;;;25.85;13.35;;;;;;;;;;5868470;24;20020;-88
2023/04/17 05:37:45;;;;;;;28.50;13.13;;;;;;;;;;5870163;24;20100;-87
2023/04/17 05:41:12;;;;;;;29.25;15.15;;;;;;;;;;5896327;24;20029;-87
2023/04/17 05:44:16;;;;;;;35.20;15.80;;;;;;;;;;5914137;24;20029;-88
2023/04/17 05:47:32;;;;;;;31.60;14.50;;;;;;;;;;5926344;24;20030;-88
2023/04/17 05:51:18;;;;;;;33.17;15.05;;;;;;;;;;5944772;24;20036;-87
2023/04/17 05:54:50;;;;;;;34.00;16.40;;;;;;;;;;5988031;23;20097;-87
2023/04/17 05:57:30;;;;;;;33.95;16.40;;;;;;;;;;5951907;24;20024;-87
2023/04/17 06:00:26;;;;;;;40.30;19.13;;;;;;;;;;6019170;23;20019;-88
2023/04/17 06:03:50;;;;;;;36.47;16.42;;;;;;;;;;6008280;23;20034;-88
2023/04/17 06:07:10;;;;;;;36.72;18.08;;;;;;;;;;6008251;23;20078;-88
2023/04/17 06:10:19;;;;;;;37.45;16.58;;;;;;;;;;5960977;23;20846;-88
2023/04/17 06:13:28;;;;;;;37.83;16.85;;;;;;;;;;6004034;23;20099;-87
2023/04/17 06:17:06;;;;;;;39.28;17.42;;;;;;;;;;6036776;23;20340;-87
2023/04/17 06:20:15;;;;;;;38.92;18.17;;;;;;;;;;6052554;23;20537;-87
2023/04/17 06:23:55;;;;;;;36.95;17.67;;;;;;;;;;6074815;23;20443;-87
2023/04/17 06:27:27;;;;;;;37.38;17.48;;;;;;;;;;6067883;23;20098;-87
2023/04/17 06:30:34;;;;;;;42.30;17.85;;;;;;;;;;6081010;23;20445;-88
2023/04/17 06:34:04;;;;;;;37.03;17.65;;;;;;;;;;6047489;23;20015;-88
2023/04/17 06:37:42;;;;;;;33.42;16.83;;;;;;;;;;6063248;23;20026;-88
2023/04/17 06:40:50;;;;;;;36.88;16.45;;;;;;;;;;6057475;23;20026;-88
2023/04/17 06:43:41;;;;;;;36.72;16.77;;;;;;;;;;6012454;23;20027;-87
2023/04/17 06:47:22;;;;;;;36.03;17.35;;;;;;;;;;6062365;23;20118;-87
2023/04/17 06:50:46;;;;;;;35.33;15.38;;;;;;;;;;6066768;23;20251;-87
2023/04/17 07:09:50;;;;;;;29.13;14.98;;;;;;;;;;5198034;22;25704335;-88
2023/04/17 07:12:58;;;;;;;33.60;14.82;;;;;;;;;;6281740;22;20425;-88
2023/04/17 07:16:17;;;;;;;26.30;13.60;;;;;;;;;;6208799;23;20020;-88
2023/04/17 07:33:13;;;;;;;23.83;12.27;;;;;;;;;;6255080;22;19919;-88
2023/04/17 07:36:49;;;;;;;25.05;12.00;;;;;;;;;;6268812;22;20023;-88
2023/04/17 07:40:00;;;;;;;23.52;12.05;;;;;;;;;;6179260;23;20555;-88
2023/04/17 07:43:20;;;;;;;23.42;11.82;;;;;;;;;;6047927;23;20089;-88
2023/04/17 07:46:33;;;;;;;24.60;12.57;;;;;;;;;;6029019;23;20019;-88
2023/04/17 07:50:21;;;;;;;26.70;12.48;;;;;;;;;;6069990;23;20022;-88
2023/04/17 07:54:03;;;;;;;24.53;11.70;;;;;;;;;;6044354;23;20038;-89
2023/04/17 07:57:10;;;;;;;19.42;10.60;;;;;;;;;;6015861;23;20400;-88
2023/04/17 08:01:16;;;;;;;19.92;10.65;;;;;;;;;;5988123;24;20028;-88
2023/04/17 08:04:47;;;;;;;21.27;11.13;;;;;;;;;;5924942;24;20189;-89
2023/04/17 08:07:42;;;;;;;19.23;10.18;;;;;;;;;;5853737;24;20090;-88
2023/04/17 08:10:48;;;;;;;17.52;9.52;;;;;;;;;;5833568;24;20682;-89
2023/04/17 08:14:02;;;;;;;20.80;10.00;;;;;;;;;;5906340;24;20025;-88
2023/04/17 08:20:18;;;;;;;18.52;7.97;;;;;;;;;;5902746;24;20084;-88
2023/04/17 08:23:37;;;;;;;15.88;8.75;;;;;;;;;;5936438;24;20546;-89
2023/04/17 08:26:40;;;;;;;16.85;7.95;;;;;;;;;;5960505;23;20020;-89
2023/04/17 08:30:32;;;;;;;14.65;8.05;;;;;;;;;;6002105;23;20027;-89
2023/04/17 08:33:47;;;;;;;18.10;8.82;;;;;;;;;;5916923;24;20016;-89
2023/04/17 08:37:10;;;;;;;17.13;8.40;;;;;;;;;;5926784;24;20028;-88
2023/04/17 08:44:26;;;;;;;17.35;8.07;;;;;;;;;;5923138;24;20020;-89
2023/04/17 08:47:57;;;;;;;14.30;8.23;;;;;;;;;;5981279;23;20024;-89
2023/04/17 08:51:02;;;;;;;18.02;8.75;;;;;;;;;;5985951;23;20045;-89
2023/04/17 08:54:36;;;;;;;;;;;;;;;;;;5994705;23;20031;-89
2023/04/17 08:58:49;;;;;;;18.33;7.97;;;;;;;;;;6027554;23;19917;-88
2023/04/17 09:02:30;;;;;;;15.73;9.13;;;;;;;;;;6037406;23;20027;-89
2023/04/17 09:05:47;;;;;;;13.88;7.95;;;;;;;;;;6037847;23;20087;-89
2023/04/17 09:09:24;;;;;;;12.10;7.20;;;;;;;;;;6010903;23;20021;-89
2023/04/17 09:13:02;;;;;;;12.90;8.10;;;;;;;;;;5968216;24;20065;-89
2023/04/17 09:16:45;;;;;;;14.05;8.40;;;;;;;;;;5938096;24;20019;-89
2023/04/17 09:20:00;;;;;;;13.18;7.93;;;;;;;;;;5987298;23;20020;-89
2023/04/17 09:23:12;;;;;;;12.57;7.50;;;;;;;;;;5979945;23;20028;-89
2023/04/17 09:26:35;;;;;;;14.73;7.70;;;;;;;;;;6030094;23;20101;-89
2023/04/17 09:30:14;;;;;;;13.65;7.95;;;;;;;;;;6083152;23;20018;-89
2023/04/17 09:33:22;;;;;;;13.40;7.55;;;;;;;;;;6071138;23;20477;-89
2023/04/17 09:36:38;;;;;;;15.27;8.65;;;;;;;;;;6070548;23;20032;-89
2023/04/17 09:40:19;;;;;;;16.30;9.07;;;;;;;;;;6013303;23;20141;-89
2023/04/17 09:44:28;;;;;;;13.88;8.30;;;;;;;;;;6038358;23;20023;-88
2023/04/17 09:47:54;;;;;;;13.88;7.68;;;;;;;;;;6017333;23;20034;-89
2023/04/17 09:55:15;;;;;;;14.07;8.65;;;;;;;;;;6008872;23;20019;-89
2023/04/17 09:58:38;;;;;;;14.95;8.55;;;;;;;;;;6006903;23;20014;-89
2023/04/17 10:01:41;;;;;;;18.58;10.18;;;;;;;;;;5951670;24;20030;-88
2023/04/17 10:05:21;;;;;;;20.17;9.80;;;;;;;;;;5994264;23;20028;-88
2023/04/17 10:08:44;;;;;;;16.42;9.20;;;;;;;;;;5970869;24;20021;-88
2023/04/17 10:12:14;;;;;;;18.33;8.50;;;;;;;;;;5956973;24;20024;-88
2023/04/17 10:15:31;;;;;;;15.55;8.70;;;;;;;;;;5942964;24;20398;-87
2023/04/17 10:22:23;;;;;;;16.00;8.32;;;;;;;;;;5990329;23;20040;-87
2023/04/17 10:30:16;;;;;;;19.85;9.23;;;;;;;;;;5922825;24;20127;-88
2023/04/17 10:34:28;;;;;;;15.13;8.77;;;;;;;;;;6027319;23;20026;-88
2023/04/17 10:38:08;;;;;;;17.58;8.73;;;;;;;;;;6023572;23;20020;-88
2023/04/17 10:41:18;;;;;;;14.57;8.40;;;;;;;;;;5857305;24;20036;-88
2023/04/17 10:44:47;;;;;;;19.88;8.52;;;;;;;;;;5878838;24;20029;-88
2023/04/17 10:47:44;;;;;;;19.58;8.95;;;;;;;;;;5932619;24;20020;-88
2023/04/17 10:51:28;;;;;;;13.30;6.63;;;;;;;;;;5975309;24;20012;-88
2023/04/17 10:55:29;;;;;;;12.40;7.30;;;;;;;;;;5925829;24;20024;-88
2023/04/17 10:59:04;;;;;;;11.77;6.10;;;;;;;;;;5840771;24;20027;-88
2023/04/17 11:02:49;;;;;;;9.88;5.97;;;;;;;;;;5872548;24;20353;-89
2023/04/17 11:06:30;;;;;;;11.57;5.88;;;;;;;;;;5870011;24;20052;-88
2023/04/17 11:10:19;;;;;;;12.80;6.00;;;;;;;;;;5896883;24;20013;-88
2023/04/17 11:14:00;;;;;;;11.20;5.45;;;;;;;;;;5911486;24;20027;-88
2023/04/17 11:18:02;;;;;;;10.77;4.90;;;;;;;;;;5871177;24;20099;-88
2023/04/17 11:21:28;;;;;;;9.18;5.35;;;;;;;;;;5870048;24;20037;-88
2023/04/17 11:25:06;;;;;;;9.10;5.20;;;;;;;;;;5869097;24;20033;-88
2023/04/17 11:28:59;;;;;;;9.88;4.95;;;;;;;;;;5872325;24;20100;-88
2023/04/17 11:32:12;;;;;;;14.85;5.40;;;;;;;;;;5878226;24;20086;-89
2023/04/17 11:35:32;;;;;;;7.32;3.85;;;;;;;;;;5894813;24;20026;-88
2023/04/17 11:38:57;;;;;;;9.10;4.70;;;;;;;;;;5924759;24;20101;-89
2023/04/17 11:42:29;;;;;;;9.68;4.43;;;;;;;;;;5917320;24;20024;-88
2023/04/17 11:45:59;;;;;;;9.38;4.75;;;;;;;;;;5927118;24;20025;-89
2023/04/17 11:49:31;;;;;;;10.82;5.18;;;;;;;;;;5898497;24;20124;-88
2023/04/17 11:52:57;;;;;;;9.75;5.22;;;;;;;;;;5895405;24;20450;-89
2023/04/17 11:56:27;;;;;;;13.43;5.25;;;;;;;;;;5921721;24;20025;-88
2023/04/17 11:59:38;;;;;;;12.10;5.50;;;;;;;;;;5914607;24;20028;-89
2023/04/17 12:06:40;;;;;;;9.20;5.20;;;;;;;;;;5877249;24;20129;-88
2023/04/17 12:10:26;;;;;;;13.35;6.20;;;;;;;;;;5883824;24;20086;-88
2023/04/17 12:18:04;;;;;;;11.80;6.00;;;;;;;;;;5872828;24;20018;-88
2023/04/17 12:21:37;;;;;;;10.70;5.25;;;;;;;;;;5849756;24;20026;-87
2023/04/17 12:24:45;;;;;;;13.20;5.70;;;;;;;;;;5832146;24;20053;-87
2023/04/17 12:28:11;;;;;;;11.35;5.68;;;;;;;;;;5873419;24;20100;-87
2023/04/17 12:31:26;;;;;;;10.80;5.93;;;;;;;;;;5848587;24;20029;-88
2023/04/17 12:34:30;;;;;;;10.30;6.05;;;;;;;;;;5947077;24;20029;-87
2023/04/17 12:37:57;;;;;;;12.48;6.20;;;;;;;;;;5908303;24;20032;-87
2023/04/17 12:41:16;;;;;;;13.80;5.88;;;;;;;;;;5961675;24;20459;-88
2023/04/17 12:44:21;;;;;;;9.85;5.80;;;;;;;;;;5891191;24;20104;-88
2023/04/17 12:47:50;;;;;;;13.07;5.85;;;;;;;;;;5903910;24;20449;-87
2023/04/17 12:50:48;;;;;;;10.98;5.18;;;;;;;;;;6010161;23;20027;-87
2023/04/17 12:53:59;;;;;;;10.23;5.28;;;;;;;;;;5996624;23;20019;-88
2023/04/17 12:57:17;;;;;;;8.43;5.00;;;;;;;;;;6066771;23;20050;-87
2023/04/17 13:01:04;;;;;;;9.13;5.15;;;;;;;;;;6117499;23;20029;-87
2023/04/17 13:04:12;;;;;;;7.90;4.38;;;;;;;;;;6140579;23;20075;-87
2023/04/17 13:07:46;;;;;;;8.30;4.80;;;;;;;;;;6125775;23;20352;-86
2023/04/17 13:11:17;;;;;;;8.65;4.55;;;;;;;;;;6126876;23;20445;-87
2023/04/17 13:18:53;;;;;;;11.27;5.05;;;;;;;;;;6104463;23;20041;-88
2023/04/17 13:21:53;;;;;;;12.50;4.40;;;;;;;;;;6029760;23;20043;-88
2023/04/17 13:25:05;;;;;;;8.13;4.53;;;;;;;;;;6129317;23;20048;-87
2023/04/17 13:28:36;;;;;;;11.82;4.43;;;;;;;;;;6092668;23;20441;-87
2023/04/17 13:32:39;;;;;;;8.18;4.05;;;;;;;;;;6099956;23;20036;-87
2023/04/17 13:35:52;;;;;;;8.68;4.40;;;;;;;;;;6065954;23;20372;-87
2023/04/17 13:39:15;;;;;;;8.48;4.47;;;;;;;;;;6040671;23;20019;-87
2023/04/17 13:42:29;;;;;;;6.93;3.80;;;;;;;;;;6059268;23;20034;-87
2023/04/17 13:46:14;;;;;;;10.50;4.28;;;;;;;;;;6049646;23;20019;-87
2023/04/17 13:49:37;;;;;;;9.98;3.90;;;;;;;;;;6040991;23;20587;-87
2023/04/17 13:52:40;;;;;;;8.73;4.15;;;;;;;;;;6028161;23;20219;-87
2023/04/17 13:56:49;;;;;;;6.88;4.32;;;;;;;;;;6082854;23;20022;-87
2023/04/17 14:00:21;;;;;;;9.02;4.28;;;;;;;;;;6063248;23;20028;-87
2023/04/17 14:03:53;;;;;;;9.45;3.60;;;;;;;;;;6083809;23;20172;-87
2023/04/17 14:07:37;;;;;;;8.52;3.63;;;;;;;;;;6141465;23;20068;-87
2023/04/17 14:11:18;;;;;;;9.57;4.55;;;;;;;;;;6116800;23;20419;-87
2023/04/17 14:15:19;;;;;;;8.48;4.55;;;;;;;;;;6058350;23;20058;-87
2023/04/17 14:18:44;;;;;;;6.72;3.92;;;;;;;;;;5981608;23;20428;-87
2023/04/17 14:21:42;;;;;;;10.40;5.00;;;;;;;;;;5964051;23;20102;-87
2023/04/17 14:29:39;;;;;;;8.10;4.53;;;;;;;;;;5898312;24;20078;-88
2023/04/17 14:32:57;;;;;;;10.38;4.88;;;;;;;;;;5873243;24;20030;-87
2023/04/17 14:36:15;;;;;;;8.48;4.55;;;;;;;;;;5848275;24;20171;-87
2023/04/17 14:39:50;;;;;;;8.05;4.47;;;;;;;;;;5846798;24;20030;-87
2023/04/17 14:42:55;;;;;;;8.30;4.53;;;;;;;;;;5811914;24;20026;-87
2023/04/17 14:46:03;;;;;;;8.38;5.03;;;;;;;;;;5874690;24;20390;-87
2023/04/17 14:49:08;;;;;;;9.35;4.72;;;;;;;;;;5880249;24;20210;-87
2023/04/17 14:52:19;;;;;;;8.73;4.75;;;;;;;;;;5912045;24;20085;-87
2023/04/17 15:00:16;;;;;;;11.68;4.82;;;;;;;;;;5949604;24;20027;-87
2023/04/17 15:03:34;;;;;;;11.43;4.70;;;;;;;;;;6024416;23;20380;-88
2023/04/17 15:11:01;;;;;;;11.88;5.75;;;;;;;;;;6123519;23;20028;-88
2023/04/17 15:14:32;;;;;;;8.32;4.90;;;;;;;;;;5956912;24;20079;-88
2023/04/17 15:17:23;;;;;;;10.88;5.78;;;;;;;;;;5934111;24;20321;-88
2023/04/17 15:21:13;;;;;;;11.57;5.72;;;;;;;;;;5960488;23;20032;-88
2023/04/17 15:24:24;;;;;;;10.38;5.25;;;;;;;;;;5940752;24;20013;-88
2023/04/17 15:32:14;;;;;;;8.90;4.43;;;;;;;;;;5959458;23;20095;-87
2023/04/17 15:35:55;;;;;;;9.73;5.05;;;;;;;;;;5979254;24;20012;-87
2023/04/17 15:38:55;;;;;;;11.05;5.60;;;;;;;;;;5902141;24;20460;-88
2023/04/17 15:42:08;;;;;;;10.32;5.65;;;;;;;;;;5987253;24;20036;-87
2023/04/17 15:45:39;;;;;;;10.10;5.20;;;;;;;;;;5992381;23;20050;-87
2023/04/17 15:49:13;;;;;;;7.88;4.70;;;;;;;;;;5952689;24;20378;-87
2023/04/17 15:52:23;;;;;;;12.90;5.00;;;;;;;;;;5932808;24;20021;-88
2023/04/17 15:55:57;;;;;;;7.78;4.78;;;;;;;;;;5930649;24;20027;-88
2023/04/17 15:59:00;;;;;;;9.77;5.32;;;;;;;;;;5904552;24;20017;-88
2023/04/17 16:02:35;;;;;;;8.55;5.25;;;;;;;;;;5832360;24;20021;-88
2023/04/17 16:05:42;;;;;;;;;;;;;;;;;;5873836;24;20086;-88
2023/04/17 16:08:45;;;;;;;9.25;5.38;;;;;;;;;;5872800;24;19989;-88
2023/04/17 16:12:20;;;;;;;9.10;5.05;;;;;;;;;;5845332;24;20035;-88
2023/04/17 16:18:59;;;;;;;9.70;5.03;;;;;;;;;;5927063;24;20074;-88
2023/04/17 16:22:24;;;;;;;10.57;5.15;;;;;;;;;;5916468;24;20519;-87
2023/04/17 16:25:52;;;;;;;8.20;4.88;;;;;;;;;;5975653;23;20051;-88
2023/04/17 16:29:09;;;;;;;8.07;4.45;;;;;;;;;;5931029;24;20424;-88
2023/04/17 16:41:04;;;;;;;8.77;4.82;;;;;;;;;;6010993;23;20024;-87
2023/04/17 16:44:29;;;;;;;12.00;4.30;;;;;;;;;;6048969;23;20015;-87
2023/04/17 16:48:10;;;;;;;14.65;5.20;;;;;;;;;;6067581;23;20019;-87
2023/04/17 16:54:58;;;;;;;8.88;5.10;;;;;;;;;;5935822;23;20469;-88
2023/04/17 16:58:38;;;;;;;8.63;4.88;;;;;;;;;;6038577;23;20094;-88
2023/04/17 17:05:10;;;;;;;9.52;5.78;;;;;;;;;;6031457;23;20019;-87
2023/04/17 17:08:50;;;;;;;10.48;5.93;;;;;;;;;;6035541;23;20019;-88
2023/04/17 17:12:21;;;;;;;14.77;5.68;;;;;;;;;;5987633;23;20015;-87
2023/04/17 17:15:48;;;;;;;11.63;6.07;;;;;;;;;;6023199;23;20027;-87
2023/04/17 17:19:00;;;;;;;12.40;5.85;;;;;;;;;;5986667;23;20024;-87
2023/04/17 17:26:16;;;;;;;13.80;6.28;;;;;;;;;;6033232;23;20469;-88
2023/04/17 17:29:58;;;;;;;10.70;5.80;;;;;;;;;;6058308;23;20015;-88
2023/04/17 17:33:21;;;;;;;11.95;5.85;;;;;;;;;;6041595;23;20110;-89
2023/04/17 17:36:44;;;;;;;11.15;6.00;;;;;;;;;;6039206;23;20031;-89
2023/04/17 17:40:11;;;;;;;11.48;5.32;;;;;;;;;;6067184;23;20078;-88
2023/04/17 17:43:31;;;;;;;13.10;5.95;;;;;;;;;;6022450;23;20111;-88
2023/04/17 17:46:41;;;;;;;10.57;5.97;;;;;;;;;;6011942;23;20336;-87
2023/04/17 17:54:02;;;;;;;10.93;5.90;;;;;;;;;;6011441;23;20095;-87
2023/04/17 17:57:31;;;;;;;9.50;5.85;;;;;;;;;;6000601;23;20120;-88
2023/04/17 18:01:23;;;;;;;10.80;5.90;;;;;;;;;;6007918;23;20212;-88
2023/04/17 18:04:40;;;;;;;13.43;5.82;;;;;;;;;;5950187;24;20345;-88
2023/04/17 18:11:41;;;;;;;10.60;4.30;;;;;;;;;;5971125;24;19950;-87
2023/04/17 18:15:22;;;;;;;12.68;6.03;;;;;;;;;;6054426;23;20055;-86
2023/04/17 18:21:57;;;;;;;9.30;5.20;;;;;;;;;;6065021;23;20808;-87
2023/04/17 18:25:38;;;;;;;12.48;4.93;;;;;;;;;;6041025;23;20713;-87
2023/04/17 18:29:16;;;;;;;11.93;5.00;;;;;;;;;;6044505;23;20015;-87
2023/04/17 18:32:19;;;;;;;12.13;4.85;;;;;;;;;;6041227;23;20406;-87
2023/04/17 18:35:35;;;;;;;6.82;4.50;;;;;;;;;;6047880;23;20795;-87
2023/04/17 18:38:35;;;;;;;8.80;4.70;;;;;;;;;;6081134;23;20053;-87
2023/04/17 18:42:10;;;;;;;9.60;5.45;;;;;;;;;;6052882;23;20019;-87
2023/04/17 18:45:53;;;;;;;13.43;4.65;;;;;;;;;;6057411;23;20031;-87
2023/04/17 18:49:13;;;;;;;9.40;4.90;;;;;;;;;;6094877;23;20026;-88
2023/04/17 18:52:50;;;;;;;8.57;4.68;;;;;;;;;;6106704;23;20138;-87
2023/04/17 18:55:44;;;;;;;;;;;;;;;;;;6134219;23;20024;-88
2023/04/17 18:58:25;;;;;;;10.55;5.13;;;;;;;;;;6098063;23;19963;-88
2023/04/17 19:01:26;;;;;;;10.77;5.35;;;;;;;;;;6115967;23;20104;-88
2023/04/17 19:04:18;;;;;;;9.30;5.05;;;;;;;;;;6099500;23;20841;-88
2023/04/17 19:07:21;;;;;;;12.90;5.78;;;;;;;;;;6080481;23;20025;-88
2023/04/17 19:10:29;;;;;;;12.80;5.43;;;;;;;;;;6029266;23;20092;-87
2023/04/17 19:16:57;;;;;;;12.27;5.45;;;;;;;;;;6036786;23;20069;-87
2023/04/17 19:21:00;;;;;;;10.80;5.60;;;;;;;;;;6036822;23;20027;-88
2023/04/17 19:24:30;;;;;;;9.20;5.03;;;;;;;;;;6073693;23;20026;-88
2023/04/17 19:27:39;;;;;;;12.13;5.97;;;;;;;;;;6041667;23;20032;-87
2023/04/17 19:30:33;;;;;;;8.95;4.90;;;;;;;;;;6064154;23;20090;-87
2023/04/17 19:34:07;;;;;;;15.00;6.35;;;;;;;;;;6022938;23;20029;-87
2023/04/17 19:37:02;;;;;;;18.45;6.28;;;;;;;;;;6075260;23;20050;-88
2023/04/17 19:40:02;;;;;;;14.60;6.20;;;;;;;;;;6151694;23;20017;-88
2023/04/17 19:43:15;;;;;;;14.73;7.07;;;;;;;;;;6133236;23;20380;-87
2023/04/17 19:46:13;;;;;;;9.98;5.97;;;;;;;;;;6132884;23;20045;-88
2023/04/17 19:50:02;;;;;;;14.40;6.32;;;;;;;;;;6108699;23;20012;-87
2023/04/17 19:53:34;;;;;;;12.85;5.85;;;;;;;;;;6153620;23;20028;-87
2023/04/17 19:56:33;;;;;;;16.45;7.03;;;;;;;;;;6007215;23;20047;-87
2023/04/17 20:00:28;;;;;;;17.00;7.13;;;;;;;;;;5989845;23;20083;-87
2023/04/17 20:03:37;;;;;;;14.00;5.90;;;;;;;;;;5984222;23;20027;-87
2023/04/17 20:06:48;;;;;;;15.30;6.97;;;;;;;;;;5955671;24;20128;-87
2023/04/17 20:09:40;;;;;;;13.30;6.15;;;;;;;;;;5924836;24;20028;-87
2023/04/17 20:12:41;;;;;;;15.02;6.53;;;;;;;;;;5976835;24;20357;-87
2023/04/17 20:16:13;;;;;;;13.52;6.90;;;;;;;;;;5960332;24;20032;-87
2023/04/17 20:19:34;;;;;;;;;;;;;;;;;;5975904;24;20115;-87
2023/04/17 20:22:31;;;;;;;14.45;6.03;;;;;;;;;;5952864;24;19919;-86
2023/04/17 20:25:30;;;;;;;15.68;6.97;;;;;;;;;;5988872;23;20026;-86
2023/04/17 20:28:46;;;;;;;16.05;6.75;;;;;;;;;;6118394;23;20758;-87
2023/04/17 20:32:04;;;;;;;15.68;7.30;;;;;;;;;;6095316;23;20033;-87
2023/04/17 20:35:08;;;;;;;12.98;6.78;;;;;;;;;;6076068;23;20030;-87
2023/04/17 20:39:09;;;;;;;14.52;6.90;;;;;;;;;;6081226;23;20069;-87
2023/04/17 20:42:22;;;;;;;16.67;6.65;;;;;;;;;;6093261;23;20112;-87
2023/04/17 20:45:32;;;;;;;12.30;7.05;;;;;;;;;;6097347;23;20752;-87
2023/04/17 20:48:09;;;;;;;12.90;7.30;;;;;;;;;;6067087;23;20018;-87
2023/04/17 20:51:27;;;;;;;15.65;6.53;;;;;;;;;;6027352;23;20342;-87
2023/04/17 20:54:46;;;;;;;14.07;6.13;;;;;;;;;;6047312;23;20101;-87
2023/04/17 20:57:40;;;;;;;20.50;7.82;;;;;;;;;;6043054;23;20722;-87
2023/04/17 21:01:08;;;;;;;18.42;7.15;;;;;;;;;;6019394;23;20027;-95
2023/04/17 21:03:53;;;;;;;12.93;6.97;;;;;;;;;;6068219;23;20027;-93
2023/04/17 21:07:04;;;;;;;18.35;7.32;;;;;;;;;;6043347;23;20045;-93
2023/04/17 21:10:01;;;;;;;14.93;7.03;;;;;;;;;;6077023;23;20243;-93
2023/04/17 21:13:35;;;;;;;12.52;7.40;;;;;;;;;;6057794;23;20030;-90
2023/04/17 21:16:48;;;;;;;13.50;6.95;;;;;;;;;;6065550;23;20018;-90
2023/04/17 21:20:01;;;;;;;18.42;8.80;;;;;;;;;;6000254;23;20019;-90
2023/04/17 21:27:33;;;;;;;13.50;7.07;;;;;;;;;;6042241;23;20026;-95
2023/04/17 21:31:09;;;;;;;17.38;6.97;;;;;;;;;;6070389;23;20350;-91
2023/04/17 21:38:15;;;;;;;14.80;7.38;;;;;;;;;;6066872;23;20019;-90
2023/04/17 21:41:30;;;;;;;15.38;7.47;;;;;;;;;;6041994;23;20039;-93
2023/04/17 21:44:24;;;;;;;17.45;7.72;;;;;;;;;;6023614;23;20023;-93
2023/04/17 21:47:00;;;;;;;17.20;8.10;;;;;;;;;;6044581;23;20022;-93
2023/04/17 21:49:46;;;;;;;18.35;7.90;;;;;;;;;;6030427;23;20014;-93
2023/04/17 21:52:56;;;;;;;15.40;7.85;;;;;;;;;;6063042;23;20368;-93
2023/04/17 21:55:34;;;;;;;21.55;8.15;;;;;;;;;;6130084;23;20100;-93
2023/04/17 21:58:36;;;;;;;16.05;7.63;;;;;;;;;;6133789;23;20022;-93
2023/04/17 22:01:40;;;;;;;14.25;7.32;;;;;;;;;;6160819;23;20026;-89
2023/04/17 22:04:50;;;;;;;16.88;7.47;;;;;;;;;;6204594;23;20020;-90
2023/04/17 22:08:07;;;;;;;19.55;7.30;;;;;;;;;;6152354;23;20456;-89
2023/04/17 22:11:20;;;;;;;20.02;8.30;;;;;;;;;;6157414;23;20009;-89
2023/04/17 22:14:59;;;;;;;16.60;7.55;;;;;;;;;;6177798;23;20016;-87
2023/04/17 22:18:17;;;;;;;17.73;7.45;;;;;;;;;;6129094;23;20087;-85
2023/04/17 22:21:19;;;;;;;13.95;6.47;;;;;;;;;;6213943;23;20342;-93
2023/04/17 22:24:19;;;;;;;13.80;6.75;;;;;;;;;;6185043;23;20016;-93
2023/04/17 22:27:15;;;;;;;16.63;7.75;;;;;;;;;;6159457;23;20032;-93
2023/04/17 22:29:55;;;;;;;14.05;7.47;;;;;;;;;;6135413;23;20043;-94
2023/04/17 22:32:35;;;;;;;17.33;7.18;;;;;;;;;;6193782;23;20020;-93
2023/04/17 22:35:56;;;;;;;16.98;7.97;;;;;;;;;;6183497;23;20080;-93
2023/04/17 22:38:59;;;;;;;14.85;7.97;;;;;;;;;;6152597;23;20013;-93
2023/04/17 22:41:44;;;;;;;17.92;8.02;;;;;;;;;;6163399;23;20017;-87
2023/04/17 22:45:21;;;;;;;15.95;7.32;;;;;;;;;;6064600;23;20035;-87
2023/04/17 22:48:17;;;;;;;17.20;8.20;;;;;;;;;;5985441;23;20023;-87
2023/04/17 22:51:38;;;;;;;17.92;8.35;;;;;;;;;;5943543;23;20031;-93
2023/04/17 22:54:48;;;;;;;18.40;8.43;;;;;;;;;;6025981;23;20096;-93
2023/04/17 22:57:36;;;;;;;20.45;8.13;;;;;;;;;;6085959;23;20022;-93
